Terminal Aerodrome Forecast
Issued by NWS

Home | Current Version | Previous Version | Text Only | Print | Product List | Glossary On
Versions: 1 2 3 4 5 6 7 8 9 10 11 12 13 14
532
FTUS45 KABQ 221139
TAFAEG
TAF
KAEG 221139Z 2212/2312 VRB05KT P6SM SCT200
     FM221700 21010KT P6SM BKN200
     FM222100 24015G24KT P6SM BKN150
     FM230400 21012KT P6SM BKN120
     FM230800 22015G24KT P6SM BKN100=

USA.gov is the U.S. government's official web portal to all federal, state and local government web resources and services.